Time;durP1;ratioP1;P1;durP2;ratioP2;P2;SDS_P1;SDS_P2;PMS_P1;PMS_P2;Temp;Humidity;BMP_temperature;BMP_pressure;BME280_temperature;BME280_humidity;BME280_pressure;Samples;Min_cycle;Max_cycle;Signal;HPM_P1;HPM_P2
2022/01/10 00:00:00;;;;;;;13.47;4.67;;;0.90;99.90;;;1.64;100.00;97552.78;4931287;29;20471;-76
2022/01/10 00:02:30;;;;;;;9.80;4.90;;;0.80;99.90;;;1.66;100.00;97556.84;4930866;29;20464;-76
2022/01/10 00:05:02;;;;;;;8.93;4.40;;;0.90;99.90;;;1.65;100.00;97556.97;4922938;29;20565;-76
2022/01/10 00:07:31;;;;;;;7.40;4.23;;;0.80;99.90;;;1.68;100.00;97559.25;4927840;29;20932;-76
2022/01/10 00:10:02;;;;;;;10.50;4.50;;;0.90;99.90;;;1.69;100.00;97558.31;4928937;29;20535;-76
2022/01/10 00:12:32;;;;;;;8.50;4.63;;;1.00;99.90;;;1.65;100.00;97564.72;4929866;29;20564;-76
2022/01/10 00:15:03;;;;;;;25.83;5.80;;;1.00;99.90;;;1.63;100.00;97566.63;4927847;29;20474;-76
2022/01/10 00:17:32;;;;;;;20.20;5.40;;;1.00;99.90;;;1.66;100.00;97572.31;4932510;29;20569;-76
2022/01/10 00:20:04;;;;;;;112.43;7.90;;;1.00;99.90;;;1.66;100.00;97571.50;4928427;29;20555;-76
2022/01/10 00:22:34;;;;;;;78.37;6.70;;;1.00;99.90;;;1.67;100.00;97579.06;4929595;29;21014;-76
2022/01/10 00:25:05;;;;;;;84.43;7.40;;;1.00;99.90;;;1.67;100.00;97573.09;4929213;29;20539;-76
2022/01/10 00:27:34;;;;;;;57.07;6.30;;;1.10;99.90;;;1.68;100.00;97585.84;4930868;29;20465;-77
2022/01/10 00:30:05;;;;;;;55.47;7.70;;;1.00;99.90;;;1.68;100.00;97579.88;4933746;29;20533;-76
2022/01/10 00:32:35;;;;;;;34.90;5.20;;;0.90;99.90;;;1.68;100.00;97585.03;4930038;29;20460;-76
2022/01/10 00:35:09;;;;;;;82.53;6.57;;;0.90;99.90;;;1.68;100.00;97585.84;4933577;29;20518;-76
2022/01/10 00:37:41;;;;;;;168.80;9.77;;;0.90;99.90;;;1.69;100.00;97591.81;4927560;29;21059;-76
2022/01/10 00:40:16;;;;;;;120.00;8.00;;;1.00;99.90;;;1.68;100.00;97585.03;4928358;29;20468;-76
2022/01/10 00:42:53;;;;;;;60.33;5.57;;;1.00;99.90;;;1.66;100.00;97589.53;4929912;29;20536;-76
2022/01/10 00:45:26;;;;;;;177.60;8.57;;;0.90;99.90;;;1.58;100.00;97597.16;4927699;29;20471;-76
2022/01/10 00:47:58;;;;;;;47.33;4.87;;;0.80;99.90;;;1.57;100.00;97603.25;4928761;29;20476;-76
2022/01/10 00:50:33;;;;;;;68.23;6.33;;;0.80;99.90;;;1.56;100.00;97599.88;4929229;29;20500;-76
2022/01/10 00:53:02;;;;;;;82.17;7.20;;;0.70;99.90;;;1.55;100.00;97605.16;4930844;29;20482;-76
2022/01/10 00:55:33;;;;;;;73.40;6.23;;;0.70;99.90;;;1.58;100.00;97607.47;4929030;29;21139;-76
2022/01/10 00:58:02;;;;;;;53.70;5.50;;;0.80;99.90;;;1.56;100.00;97609.38;4930238;29;20477;-76
2022/01/10 01:00:32;;;;;;;40.97;6.10;;;0.70;99.90;;;1.54;100.00;97614.66;4933486;28;20464;-76
2022/01/10 01:03:02;;;;;;;48.87;6.57;;;0.70;99.90;;;1.49;100.00;97615.06;4932113;29;20754;-76
2022/01/10 01:05:37;;;;;;;74.23;6.47;;;0.60;99.90;;;1.49;100.00;97620.22;4931201;29;20447;-76
2022/01/10 01:08:08;;;;;;;46.63;7.03;;;0.60;99.90;;;1.49;100.00;97627.94;4925037;29;20882;-76
2022/01/10 01:13:32;;;;;;;61.03;7.50;;;0.70;99.90;;;1.51;100.00;97633.78;4930104;28;20495;-76
2022/01/10 01:16:18;;;;;;;61.33;6.90;;;0.90;99.90;;;1.51;100.00;97635.53;4928001;29;20574;-76
2022/01/10 01:24:31;;;;;;;7.50;4.30;;;0.60;99.90;;;1.43;100.00;97648.31;4925177;29;20508;-76
2022/01/10 01:27:01;;;;;;;31.97;4.77;;;0.60;99.90;;;1.49;100.00;97658.84;4929116;29;20552;-76
2022/01/10 01:29:32;;;;;;;9.57;3.90;;;0.80;99.90;;;1.45;100.00;97667.03;4923381;29;20481;-76
2022/01/10 01:32:03;;;;;;;27.13;4.90;;;0.70;99.90;;;1.38;100.00;97671.09;4926773;29;20560;-76
2022/01/10 01:34:35;;;;;;;8.30;4.00;;;0.50;99.90;;;1.34;100.00;97672.34;4927520;29;21155;-77
2022/01/10 01:37:09;;;;;;;10.27;4.43;;;0.50;99.90;;;1.29;100.00;97679.66;4927761;29;20488;-75
2022/01/10 01:39:39;;;;;;;7.80;4.03;;;0.50;99.90;;;1.29;100.00;97680.47;4933275;29;21011;-76
2022/01/10 01:42:30;;;;;;;45.03;5.67;;;0.40;99.90;;;1.29;100.00;97695.09;4927335;29;20911;-76
2022/01/10 01:45:00;;;;;;;45.77;6.67;;;0.40;99.90;;;1.30;100.00;97687.25;4925107;29;20463;-76
2022/01/10 01:47:30;;;;;;;37.33;6.40;;;0.60;99.90;;;1.31;100.00;97686.31;4941113;29;20473;-76
2022/01/10 01:50:00;;;;;;;45.80;6.73;;;0.50;99.90;;;1.30;100.00;97691.56;4926742;29;20832;-76
2022/01/10 01:52:31;;;;;;;21.60;6.43;;;0.60;99.90;;;1.31;100.00;97709.47;4922578;29;20473;-76
2022/01/10 01:55:00;;;;;;;42.17;5.80;;;0.60;99.90;;;1.30;100.00;97700.13;4922956;29;20474;-76
2022/01/10 01:57:29;;;;;;;31.97;5.20;;;0.50;99.90;;;1.25;100.00;97702.28;4932275;29;20496;-76
2022/01/10 01:59:58;;;;;;;15.67;5.00;;;0.50;99.90;;;1.25;100.00;97707.44;4930094;29;20470;-76
2022/01/10 02:02:29;;;;;;;19.13;4.53;;;0.40;99.90;;;1.22;100.00;97712.84;4925288;29;20467;-76
2022/01/10 02:05:00;;;;;;;8.43;4.40;;;0.50;99.90;;;1.22;100.00;97717.19;4929689;29;21085;-76
2022/01/10 02:07:31;;;;;;;42.53;6.97;;;0.40;99.90;;;1.17;100.00;97717.63;4930393;29;20865;-76
2022/01/10 02:10:01;;;;;;;38.60;4.63;;;0.30;99.90;;;1.17;100.00;97714.22;4928932;29;20466;-76
2022/01/10 02:12:32;;;;;;;29.50;5.33;;;0.40;99.90;;;1.18;100.00;97729.53;4924216;29;21046;-76
2022/01/10 02:15:02;;;;;;;23.20;4.97;;;0.50;99.90;;;1.18;100.00;97726.94;4927928;29;20526;-76
2022/01/10 02:17:36;;;;;;;18.93;5.50;;;0.60;99.90;;;1.16;100.00;97728.84;4929759;29;20821;-75
2022/01/10 02:20:09;;;;;;;22.30;4.43;;;0.50;99.90;;;1.17;100.00;97734.81;4922454;29;20836;-76
2022/01/10 02:22:40;;;;;;;24.90;4.73;;;0.50;99.90;;;1.15;100.00;97734.13;4931111;29;20536;-76
2022/01/10 02:25:11;;;;;;;8.00;3.63;;;0.50;99.90;;;1.14;100.00;97730.78;4926639;28;21003;-76
2022/01/10 02:27:43;;;;;;;15.37;5.03;;;0.60;99.90;;;1.12;100.00;97726.69;4926214;29;20591;-76
2022/01/10 02:30:13;;;;;;;13.20;3.40;;;0.60;99.90;;;1.10;100.00;97742.28;4930490;28;20559;-76
2022/01/10 02:32:44;;;;;;;27.17;4.40;;;0.50;99.90;;;1.08;100.00;97744.16;4924457;29;20503;-76
2022/01/10 02:35:23;;;;;;;14.30;3.80;;;0.50;99.90;;;1.07;100.00;97747.72;4924103;29;20578;-76
2022/01/10 02:37:54;;;;;;;9.00;4.00;;;0.40;99.90;;;1.06;100.00;97753.78;4927634;29;20575;-76
2022/01/10 02:40:28;;;;;;;7.57;4.30;;;0.40;99.90;;;1.07;100.00;97755.44;4926554;29;20477;-76
2022/01/10 02:42:57;;;;;;;14.77;4.90;;;0.50;99.90;;;1.04;100.00;97755.69;4928435;29;20465;-76
2022/01/10 02:45:27;;;;;;;25.83;5.20;;;0.50;99.90;;;1.04;100.00;97760.84;4925971;29;20473;-76
2022/01/10 02:47:57;;;;;;;9.90;5.07;;;0.50;99.90;;;1.02;100.00;97771.28;4925486;29;20479;-76
2022/01/10 02:50:28;;;;;;;20.63;5.40;;;0.30;99.90;;;1.07;100.00;97765.72;4940078;29;20477;-76
2022/01/10 02:52:58;;;;;;;22.83;5.03;;;0.30;99.90;;;1.00;100.00;97769.78;4930009;28;20526;-76
2022/01/10 02:55:28;;;;;;;15.47;5.37;;;0.30;99.90;;;0.98;100.00;97784.53;4925093;29;20505;-76
2022/01/10 02:57:58;;;;;;;30.30;5.67;;;0.20;99.90;;;0.99;100.00;97783.59;4930195;29;20466;-76
2022/01/10 03:00:28;;;;;;;75.97;6.40;;;0.30;99.90;;;0.99;100.00;97791.31;4927249;29;20467;-76
2022/01/10 03:02:58;;;;;;;20.03;4.80;;;0.30;99.90;;;0.99;100.00;97791.31;4926182;29;20472;-76
2022/01/10 03:05:28;;;;;;;29.07;4.70;;;0.20;99.90;;;1.02;100.00;97803.91;4925268;29;20467;-76
2022/01/10 03:08:02;;;;;;;30.77;4.60;;;0.20;99.90;;;0.85;100.00;97814.84;4934446;29;20468;-76
2022/01/10 03:10:31;;;;;;;16.50;4.90;;;0.00;99.90;;;0.82;100.00;97815.13;4921859;29;20564;-76
2022/01/10 03:13:02;;;;;;;41.13;5.20;;;0.00;99.90;;;0.84;100.00;97821.75;4928620;29;20513;-76
2022/01/10 03:15:32;;;;;;;20.30;4.10;;;0.00;99.90;;;0.88;100.00;97823.13;4925675;28;20926;-76
2022/01/10 03:18:02;;;;;;;20.67;4.47;;;0.10;99.90;;;0.92;100.00;97829.63;4925338;29;20466;-76
2022/01/10 03:20:33;;;;;;;10.70;4.20;;;0.10;99.90;;;0.91;100.00;97833.16;4935193;29;20468;-76
2022/01/10 03:23:05;;;;;;;26.20;4.37;;;0.10;99.90;;;0.93;100.00;97835.59;4920315;29;20530;-76
2022/01/10 03:25:35;;;;;;;62.23;4.70;;;0.10;99.90;;;0.90;100.00;97835.88;4927899;29;20461;-76
2022/01/10 03:28:06;;;;;;;17.47;4.17;;;0.10;99.90;;;0.89;100.00;97850.50;4932494;29;20978;-77
2022/01/10 03:30:37;;;;;;;38.50;5.57;;;0.10;99.90;;;0.89;100.00;97850.50;4927888;29;20463;-76
2022/01/10 03:33:08;;;;;;;34.13;4.73;;;0.20;99.90;;;0.90;100.00;97856.47;4930091;29;20505;-76
2022/01/10 03:35:40;;;;;;;7.07;3.77;;;0.20;99.90;;;0.87;100.00;97861.84;4926557;29;20465;-76
2022/01/10 03:38:10;;;;;;;11.47;4.07;;;0.10;99.90;;;0.76;100.00;97861.97;4929171;29;20513;-76
2022/01/10 03:40:40;;;;;;;26.77;4.20;;;0.00;99.90;;;0.80;100.00;97863.34;4930780;29;20471;-76
2022/01/10 03:43:10;;;;;;;15.83;4.70;;;0.00;99.90;;;0.82;100.00;97871.72;4930201;29;21006;-76
2022/01/10 03:45:39;;;;;;;6.27;3.63;;;0.10;99.90;;;0.68;100.00;97877.22;4926737;29;20530;-76
2022/01/10 03:48:09;;;;;;;16.53;4.43;;;-0.10;99.90;;;0.69;100.00;97882.25;4929502;29;20477;-76
2022/01/10 03:50:40;;;;;;;9.57;4.70;;;-0.10;99.90;;;0.60;100.00;97880.44;4928463;29;20471;-76
2022/01/10 03:53:09;;;;;;;18.87;5.53;;;-0.20;99.90;;;0.62;100.00;97882.91;4934932;29;20513;-76
2022/01/10 03:55:40;;;;;;;9.33;4.00;;;-0.30;99.90;;;0.67;100.00;97876.41;4934233;28;20468;-76
2022/01/10 03:58:09;;;;;;;7.90;4.17;;;-0.10;99.90;;;0.67;100.00;97888.47;4927858;29;20473;-76
2022/01/10 04:00:39;;;;;;;9.03;3.47;;;-0.10;99.90;;;0.64;100.00;97892.09;4928049;29;20856;-76
2022/01/10 04:03:09;;;;;;;10.10;4.30;;;-0.10;99.90;;;0.61;100.00;97896.69;4929885;29;20544;-76
2022/01/10 04:05:41;;;;;;;14.93;4.30;;;-0.10;99.90;;;0.57;100.00;97901.28;4932547;29;20474;-76
2022/01/10 04:08:12;;;;;;;4.77;3.40;;;-0.10;99.90;;;0.59;100.00;97906.31;4942530;28;20461;-76
2022/01/10 04:10:42;;;;;;;4.30;2.83;;;-0.20;99.90;;;0.58;100.00;97907.25;4931293;29;20561;-76
2022/01/10 04:13:12;;;;;;;10.47;4.07;;;-0.10;99.90;;;0.62;100.00;97906.06;4932057;29;20652;-76
2022/01/10 04:15:40;;;;;;;6.60;3.53;;;-0.10;99.90;;;0.66;100.00;97913.38;4931109;28;20509;-76
2022/01/10 04:18:10;;;;;;;9.10;3.63;;;0.00;99.90;;;0.71;100.00;97913.81;4936437;29;20533;-76
2022/01/10 04:20:46;;;;;;;6.90;3.37;;;0.00;99.90;;;0.74;100.00;97912.72;4931261;28;20517;-76
2022/01/10 04:23:17;;;;;;;6.30;3.43;;;0.00;99.90;;;0.75;100.00;97919.50;4927046;29;20511;-76
2022/01/10 04:25:46;;;;;;;6.60;3.30;;;0.00;99.90;;;0.74;100.00;97925.59;4922584;29;20877;-76
2022/01/10 04:28:16;;;;;;;4.73;3.40;;;0.00;99.90;;;0.70;100.00;97937.91;4925348;29;21032;-76
2022/01/10 04:30:45;;;;;;;4.60;3.30;;;0.00;99.90;;;0.72;100.00;97942.94;4929991;29;20483;-76
2022/01/10 04:33:17;;;;;;;7.17;3.20;;;-0.10;99.90;;;0.65;100.00;97941.81;4921223;29;20489;-78
2022/01/10 04:35:49;;;;;;;6.30;2.80;;;-0.20;99.90;;;0.61;100.00;97943.81;4924775;29;20462;-76
2022/01/10 04:38:19;;;;;;;3.80;2.60;;;-0.30;99.90;;;0.60;100.00;97947.31;4928625;29;20464;-77
2022/01/10 04:40:49;;;;;;;3.07;2.77;;;-0.30;99.90;;;0.58;100.00;97945.81;4925435;29;20472;-77
2022/01/10 04:43:20;;;;;;;4.73;2.77;;;-0.20;99.90;;;0.60;100.00;97951.66;4927117;29;20884;-76
2022/01/10 04:45:56;;;;;;;5.70;2.93;;;-0.10;99.90;;;0.58;100.00;97948.41;4923810;29;20474;-79
2022/01/10 04:48:25;;;;;;;2.60;2.40;;;-0.10;99.90;;;0.62;100.00;97960.88;4926535;29;20559;-76
2022/01/10 04:53:42;;;;;;;4.03;2.77;;;-0.10;99.90;;;0.60;100.00;97974.81;4928046;28;21002;-79
2022/01/10 04:56:12;;;;;;;5.63;3.30;;;-0.20;99.90;;;0.59;100.00;97979.13;4924969;29;20510;-77
2022/01/10 04:58:43;;;;;;;6.57;3.17;;;-0.20;99.90;;;0.54;100.00;97985.59;4927621;29;20476;-76
2022/01/10 05:01:12;;;;;;;5.50;3.50;;;-0.30;99.90;;;0.46;100.00;97992.19;4934609;29;20802;-77
2022/01/10 05:03:41;;;;;;;7.57;3.90;;;-0.30;99.90;;;0.42;100.00;98001.09;4934727;29;20829;-77
2022/01/10 05:06:13;;;;;;;7.73;3.70;;;-0.20;99.90;;;0.37;100.00;98003.22;4930589;29;20460;-77
2022/01/10 05:08:45;;;;;;;5.37;3.23;;;-0.20;99.90;;;0.31;100.00;98001.13;4933278;29;20456;-77
2022/01/10 05:11:13;;;;;;;11.57;4.00;;;-0.20;99.90;;;0.28;100.00;98006.53;4929386;29;20452;-76
2022/01/10 05:13:44;;;;;;;3.17;2.90;;;-0.20;99.90;;;0.25;100.00;98009.34;4935330;29;20913;-76
2022/01/10 05:16:15;;;;;;;5.43;3.63;;;-0.20;99.90;;;0.25;100.00;98014.50;4930487;29;21074;-76
2022/01/10 05:18:46;;;;;;;5.33;3.10;;;-0.10;99.90;;;0.24;100.00;98012.88;4927218;29;20937;-76
2022/01/10 05:21:17;;;;;;;9.33;3.93;;;-0.10;99.90;;;0.21;100.00;98020.81;4935541;29;20518;-76
2022/01/10 05:23:47;;;;;;;8.97;4.50;;;-0.10;99.90;;;0.14;100.00;98022.25;4930606;28;20474;-76
2022/01/10 05:26:16;;;;;;;12.23;4.70;;;-0.20;99.90;;;0.14;100.00;98026.59;4930205;29;20451;-76
2022/01/10 05:28:46;;;;;;;12.13;3.80;;;-0.20;99.90;;;0.12;100.00;98028.44;4934397;29;20663;-76
2022/01/10 05:31:17;;;;;;;5.20;3.53;;;-0.30;99.90;;;0.17;100.00;98040.03;4933424;29;20566;-76
2022/01/10 05:33:48;;;;;;;11.57;3.40;;;-0.40;99.90;;;0.21;100.00;98054.22;4928025;29;20490;-76
2022/01/10 05:36:21;;;;;;;3.30;3.00;;;-0.40;99.90;;;0.23;100.00;98051.56;4926604;29;20861;-76
2022/01/10 05:38:50;;;;;;;6.13;3.10;;;-0.40;99.90;;;0.19;100.00;98053.56;4928305;29;20462;-76
2022/01/10 05:41:21;;;;;;;5.50;3.03;;;-0.50;99.90;;;0.20;100.00;98064.66;4926136;29;20471;-76
2022/01/10 05:43:51;;;;;;;6.60;3.00;;;-0.40;99.90;;;0.20;100.00;98062.91;4928108;29;20504;-77
2022/01/10 05:46:21;;;;;;;8.70;2.93;;;-0.50;99.90;;;0.23;100.00;98067.81;4927157;29;20561;-76
2022/01/10 05:48:53;;;;;;;11.80;2.80;;;-0.40;99.90;;;0.26;100.00;98072.69;4926304;29;20498;-76
2022/01/10 05:51:28;;;;;;;7.57;3.47;;;-0.40;99.90;;;0.29;100.00;98079.34;4929630;29;20998;-76
2022/01/10 05:53:58;;;;;;;4.47;3.70;;;-0.40;99.90;;;0.31;100.00;98080.84;4923034;29;20496;-76
2022/01/10 05:56:28;;;;;;;7.57;3.13;;;-0.40;99.90;;;0.34;100.00;98080.63;4930048;29;20459;-76
2022/01/10 05:58:58;;;;;;;5.63;3.40;;;-0.40;99.90;;;0.36;100.00;98091.59;4932389;29;20462;-76
2022/01/10 06:01:28;;;;;;;4.33;3.00;;;-0.30;99.90;;;0.37;100.00;98092.41;4930943;29;20443;-76
2022/01/10 06:03:59;;;;;;;8.13;3.50;;;-0.30;99.90;;;0.36;100.00;98099.31;4927099;29;20467;-76
2022/01/10 06:06:30;;;;;;;6.40;3.40;;;-0.30;99.90;;;0.33;100.00;98102.13;4930209;29;20461;-76
2022/01/10 06:09:00;;;;;;;3.47;2.63;;;-0.40;99.90;;;0.35;100.00;98110.53;4929756;29;20467;-76
2022/01/10 06:11:30;;;;;;;9.20;3.50;;;-0.30;99.90;;;0.38;100.00;98122.34;4926384;29;20481;-76
2022/01/10 06:14:01;;;;;;;6.77;3.63;;;-0.20;99.90;;;0.36;100.00;98129.34;4916654;29;20510;-76
2022/01/10 06:16:32;;;;;;;7.00;3.80;;;-0.40;99.90;;;0.37;100.00;98129.22;4926794;29;20490;-76
2022/01/10 06:19:02;;;;;;;14.00;6.67;;;-0.40;99.90;;;0.37;100.00;98131.81;4927432;29;20494;-76
2022/01/10 06:21:34;;;;;;;12.50;4.20;;;-0.30;99.90;;;0.38;100.00;98145.47;4926953;29;20514;-76
2022/01/10 06:24:03;;;;;;;13.33;3.53;;;-0.30;99.90;;;0.38;100.00;98148.84;4925893;29;20546;-76
2022/01/10 06:26:33;;;;;;;10.10;4.07;;;-0.30;99.90;;;0.37;100.00;98161.84;4918377;29;21031;-76
2022/01/10 06:29:03;;;;;;;9.37;4.00;;;-0.40;99.90;;;0.33;100.00;98168.16;4917084;29;20468;-76
2022/01/10 06:31:33;;;;;;;14.57;3.60;;;-0.40;99.90;;;0.33;100.00;98170.72;4924387;29;21119;-76
2022/01/10 06:34:03;;;;;;;5.93;4.00;;;-0.30;99.90;;;0.34;100.00;98168.06;4926395;29;20500;-76
2022/01/10 06:36:35;;;;;;;7.00;3.30;;;-0.40;99.90;;;0.34;100.00;98173.19;4924567;29;20825;-77
2022/01/10 06:39:05;;;;;;;12.57;4.63;;;-0.40;99.90;;;0.37;100.00;98178.09;4923368;29;20469;-76
2022/01/10 06:41:34;;;;;;;11.37;4.47;;;-0.30;99.90;;;0.37;100.00;98187.56;4922767;29;21118;-76
2022/01/10 06:44:04;;;;;;;15.10;4.93;;;-0.30;99.90;;;0.37;100.00;98185.81;4923110;29;20491;-76
2022/01/10 06:46:34;;;;;;;9.87;3.90;;;-0.30;99.90;;;0.36;100.00;98186.72;4924143;29;20458;-76
2022/01/10 06:49:04;;;;;;;9.10;4.27;;;-0.30;99.90;;;0.32;100.00;98190.47;4923792;29;20494;-76
2022/01/10 06:51:35;;;;;;;10.13;3.70;;;-0.30;99.90;;;0.28;100.00;98201.94;4925960;29;20825;-76
2022/01/10 06:54:06;;;;;;;17.57;4.10;;;-0.40;99.90;;;0.21;100.00;98208.47;4924886;29;20503;-76
2022/01/10 06:56:35;;;;;;;13.20;3.63;;;-0.40;99.90;;;0.22;100.00;98210.13;4923718;29;20471;-76
2022/01/10 06:59:05;;;;;;;5.63;3.67;;;-0.50;99.90;;;0.20;100.00;98217.16;4927728;29;20478;-77
2022/01/10 07:01:35;;;;;;;6.90;3.70;;;-0.50;99.90;;;0.20;100.00;98217.16;4927884;29;20562;-76
2022/01/10 07:04:09;;;;;;;7.93;4.50;;;-0.50;99.90;;;0.19;100.00;98223.22;4932442;29;20839;-80
2022/01/10 07:06:40;;;;;;;10.87;4.33;;;-0.60;99.90;;;0.17;100.00;98232.81;4932494;29;20965;-76
2022/01/10 07:09:10;;;;;;;14.47;4.53;;;-0.60;99.90;;;0.15;100.00;98244.97;4929058;29;20576;-76
2022/01/10 07:11:41;;;;;;;8.80;4.67;;;-0.50;99.90;;;0.05;100.00;98243.19;4929070;29;20943;-76
2022/01/10 07:14:13;;;;;;;9.43;4.63;;;-0.60;99.90;;;0.04;100.00;98252.66;4934661;29;20537;-76
2022/01/10 07:16:44;;;;;;;15.50;4.50;;;-0.70;99.90;;;0.03;100.00;98257.94;4933394;29;20495;-76
2022/01/10 07:19:14;;;;;;;7.37;4.57;;;-0.70;99.90;;;0.01;100.00;98263.19;4934129;28;21663;-76
2022/01/10 07:21:48;;;;;;;8.03;4.70;;;-0.70;99.90;;;0.02;100.00;98274.28;4932088;29;20478;-75
2022/01/10 07:24:19;;;;;;;7.63;4.17;;;-0.70;99.90;;;0.05;100.00;98280.00;4931907;29;20498;-76
2022/01/10 07:26:48;;;;;;;11.20;5.10;;;-0.70;99.90;;;0.04;100.00;98280.09;4933171;29;20491;-76
2022/01/10 07:29:17;;;;;;;11.70;5.30;;;-0.70;99.90;;;0.00;100.00;98287.25;4929872;29;21224;-76
2022/01/10 07:31:46;;;;;;;6.60;4.23;;;-0.70;99.90;;;-0.02;100.00;98294.25;4930191;29;20471;-76
2022/01/10 07:34:16;;;;;;;7.50;4.13;;;-0.80;99.90;;;-0.02;100.00;98296.81;4935125;29;20588;-76
2022/01/10 07:36:47;;;;;;;6.67;3.33;;;-0.80;99.90;;;-0.03;100.00;98297.75;4929878;29;20467;-76
2022/01/10 07:39:17;;;;;;;8.03;4.00;;;-0.80;99.90;;;-0.03;100.00;98306.28;4934017;29;20990;-75
2022/01/10 07:41:47;;;;;;;7.53;3.90;;;-0.80;99.90;;;-0.11;100.00;98306.03;4926749;29;20475;-75
2022/01/10 07:44:17;;;;;;;6.53;3.77;;;-1.00;99.90;;;-0.15;100.00;98308.94;4929399;29;20481;-75
2022/01/10 07:46:48;;;;;;;5.73;3.73;;;-1.00;99.90;;;-0.17;100.00;98313.38;4933125;29;20486;-75
2022/01/10 07:49:18;;;;;;;8.63;4.27;;;-1.00;99.90;;;-0.17;100.00;98308.22;4933527;29;20475;-75
2022/01/10 07:51:51;;;;;;;9.70;3.87;;;-0.90;99.90;;;-0.20;100.00;98326.44;4931895;29;20936;-75
2022/01/10 07:54:20;;;;;;;7.77;3.80;;;-0.90;99.90;;;-0.16;100.00;98323.53;4928490;29;20488;-74
2022/01/10 07:56:50;;;;;;;5.10;3.93;;;-0.90;99.90;;;-0.14;100.00;98329.38;4939820;29;20457;-75
2022/01/10 07:59:20;;;;;;;10.50;4.17;;;-0.90;99.90;;;-0.12;100.00;98331.84;4933662;28;20463;-75
2022/01/10 08:01:50;;;;;;;7.63;4.53;;;-0.90;99.90;;;-0.13;100.00;98333.59;4933136;29;20478;-74
2022/01/10 08:04:20;;;;;;;12.37;4.40;;;-0.90;99.90;;;-0.21;100.00;98340.25;4932799;29;20454;-75
2022/01/10 08:06:51;;;;;;;4.40;3.83;;;-0.90;99.90;;;-0.24;100.00;98346.41;4928150;29;20892;-75
2022/01/10 08:09:20;;;;;;;8.70;4.37;;;-1.10;99.90;;;-0.24;100.00;98350.72;4932127;29;20469;-75
2022/01/10 08:11:50;;;;;;;7.03;4.60;;;-1.10;99.90;;;-0.26;100.00;98347.44;4925445;29;20468;-75
2022/01/10 08:14:20;;;;;;;5.27;3.53;;;-1.00;99.90;;;-0.26;100.00;98360.28;4927623;29;20505;-75
2022/01/10 08:16:50;;;;;;;5.00;3.80;;;-1.10;99.90;;;-0.29;100.00;98366.47;4930159;29;20500;-78
2022/01/10 08:19:20;;;;;;;7.63;4.70;;;-1.00;99.90;;;-0.25;100.00;98359.38;4929879;29;20466;-76
2022/01/10 08:21:54;;;;;;;5.67;3.77;;;-1.00;99.90;;;-0.28;100.00;98375.00;4927237;29;20502;-75
2022/01/10 08:24:23;;;;;;;6.63;3.80;;;-1.00;99.90;;;-0.29;100.00;98378.50;4928583;29;20529;-76
2022/01/10 08:26:54;;;;;;;5.93;3.93;;;-1.00;99.90;;;-0.29;100.00;98381.91;4926526;29;21031;-76
2022/01/10 08:29:24;;;;;;;6.50;3.53;;;-1.00;99.90;;;-0.26;100.00;98393.69;4928977;29;20546;-75
2022/01/10 08:31:53;;;;;;;6.07;3.50;;;-1.00;99.90;;;-0.23;100.00;98396.84;4924946;29;20479;-76
2022/01/10 08:34:24;;;;;;;6.27;3.90;;;-0.90;99.90;;;-0.26;100.00;98402.22;4935804;29;20888;-76
2022/01/10 08:36:56;;;;;;;6.50;3.50;;;-1.00;99.90;;;-0.29;100.00;98409.34;4931459;29;20506;-76
2022/01/10 08:39:26;;;;;;;5.67;4.63;;;-1.00;99.90;;;-0.29;100.00;98409.34;4930644;29;20478;-75
2022/01/10 08:41:55;;;;;;;5.73;3.47;;;-1.00;99.90;;;-0.29;100.00;98415.28;4930157;28;20568;-75
2022/01/10 08:44:25;;;;;;;7.17;4.40;;;-1.10;99.90;;;-0.28;100.00;98416.94;4931920;29;20967;-75
2022/01/10 08:46:55;;;;;;;4.67;3.57;;;-1.10;99.90;;;-0.26;100.00;98429.66;4938804;29;20471;-75
2022/01/10 08:49:25;;;;;;;4.80;3.73;;;-1.10;99.90;;;-0.24;100.00;98426.03;4928732;29;20469;-75
2022/01/10 08:51:57;;;;;;;0.60;0.60;;;-1.00;99.90;;;-0.19;100.00;98425.72;4927235;29;20553;-76
2022/01/10 08:54:26;;;;;;;5.60;3.73;;;-1.00;99.90;;;-0.16;100.00;98425.50;4927684;29;20498;-75
2022/01/10 08:56:56;;;;;;;6.90;3.83;;;-0.90;99.90;;;-0.13;100.00;98435.53;4927353;29;20498;-75
2022/01/10 08:59:26;;;;;;;9.73;4.70;;;-0.90;99.90;;;-0.15;100.00;98432.28;4929229;29;20481;-76
2022/01/10 09:01:57;;;;;;;11.00;4.73;;;-0.80;99.90;;;-0.15;100.00;98437.41;4929592;29;20466;-76
2022/01/10 09:04:27;;;;;;;6.37;3.90;;;-0.90;99.90;;;-0.13;100.00;98430.41;4933205;29;20817;-75
2022/01/10 09:07:03;;;;;;;10.13;4.70;;;-0.90;99.90;;;-0.13;100.00;98438.94;4927836;29;20481;-75
2022/01/10 09:09:34;;;;;;;7.73;4.40;;;-0.90;99.90;;;-0.11;100.00;98441.41;4926355;29;20549;-76
2022/01/10 09:12:04;;;;;;;10.70;4.80;;;-0.90;99.90;;;-0.12;100.00;98448.28;4927344;29;21260;-76
2022/01/10 09:14:35;;;;;;;8.30;4.90;;;-0.80;99.90;;;-0.11;100.00;98451.69;4924174;29;20504;-75
2022/01/10 09:17:06;;;;;;;5.40;4.70;;;-0.80;99.90;;;-0.12;100.00;98452.63;4914600;29;21018;-75
2022/01/10 09:22:14;;;;;;;11.60;4.97;;;-0.90;99.90;;;-0.09;100.00;98458.34;4932335;28;21044;-75
2022/01/10 09:24:46;;;;;;;9.83;4.73;;;-0.90;99.90;;;-0.07;100.00;98464.19;4939027;28;20869;-75
2022/01/10 09:27:15;;;;;;;7.77;4.70;;;-0.90;99.90;;;-0.04;100.00;98463.16;4942797;28;20482;-75
2022/01/10 09:29:46;;;;;;;18.80;9.13;;;-0.90;99.90;;;-0.01;100.00;98465.50;4942586;28;20476;-75
2022/01/10 09:32:17;;;;;;;8.37;5.47;;;-0.80;99.90;;;0.01;100.00;98473.91;4943219;28;20954;-75
2022/01/10 09:34:48;;;;;;;10.33;5.50;;;-0.80;99.90;;;0.03;100.00;98472.06;4945941;28;20497;-75
2022/01/10 09:37:18;;;;;;;7.37;4.70;;;-0.70;99.90;;;0.06;100.00;98479.56;4948670;28;20460;-75
2022/01/10 09:39:48;;;;;;;9.40;4.90;;;-0.70;99.90;;;0.09;100.00;98481.91;4942068;28;20473;-75
2022/01/10 09:42:20;;;;;;;10.03;5.27;;;-0.70;99.90;;;0.11;100.00;98490.31;4948807;28;20465;-75
2022/01/10 09:44:50;;;;;;;11.50;4.30;;;-0.70;99.90;;;0.13;100.00;98493.63;4947713;28;20454;-75
2022/01/10 09:47:20;;;;;;;11.53;5.23;;;-0.60;99.90;;;0.18;100.00;98493.25;4943662;28;20477;-75
2022/01/10 09:49:49;;;;;;;12.40;4.67;;;-0.60;99.90;;;0.18;100.00;98498.41;4944090;28;20470;-75
2022/01/10 09:52:22;;;;;;;7.70;5.07;;;-0.60;99.90;;;0.18;100.00;98494.09;4945363;28;20478;-75
2022/01/10 09:54:53;;;;;;;9.80;4.80;;;-0.60;99.90;;;0.20;100.00;98505.09;4943254;28;20541;-75
2022/01/10 09:57:23;;;;;;;7.13;4.53;;;-0.60;99.90;;;0.23;100.00;98509.19;4949003;28;20469;-76
2022/01/10 09:59:53;;;;;;;7.77;4.73;;;-0.50;99.90;;;0.25;100.00;98513.28;4937783;28;20902;-75
2022/01/10 10:02:23;;;;;;;9.20;4.73;;;-0.50;99.90;;;0.24;100.00;98516.81;4940709;28;20490;-75
2022/01/10 10:04:54;;;;;;;6.30;5.20;;;-0.50;99.90;;;0.27;100.00;98515.75;4939678;28;20877;-76
2022/01/10 10:07:27;;;;;;;10.47;5.40;;;-0.50;99.90;;;0.29;100.00;98517.28;4945972;28;20495;-75
2022/01/10 10:10:03;;;;;;;10.13;4.93;;;-0.50;99.90;;;0.33;100.00;98520.44;4950110;28;20536;-75
2022/01/10 10:12:33;;;;;;;4.93;4.23;;;-0.40;99.90;;;0.36;100.00;98531.31;4945516;28;20528;-75
2022/01/10 10:15:06;;;;;;;7.93;5.20;;;-0.40;99.90;;;0.36;100.00;98540.78;4946944;28;20577;-75
2022/01/10 10:17:38;;;;;;;7.93;4.83;;;-0.40;99.90;;;0.34;100.00;98540.91;4946253;28;20460;-75
2022/01/10 10:20:15;;;;;;;7.87;4.43;;;-0.40;99.90;;;0.36;100.00;98535.66;4942541;28;20493;-75
2022/01/10 10:23:07;;;;;;;9.57;4.70;;;-0.30;99.90;;;0.42;100.00;98535.19;4944857;28;20464;-75
2022/01/10 10:25:37;;;;;;;8.50;4.40;;;-0.30;99.90;;;0.44;100.00;98539.31;4946352;28;20482;-75
2022/01/10 10:28:08;;;;;;;32.27;13.90;;;-0.30;99.90;;;0.41;100.00;98544.69;4942620;28;20462;-75
2022/01/10 10:30:38;;;;;;;12.70;6.90;;;-0.30;99.90;;;0.44;100.00;98539.31;4942780;28;20480;-75
2022/01/10 10:33:17;;;;;;;6.90;3.73;;;-0.30;99.90;;;0.48;100.00;98540.75;4945721;28;20528;-75
2022/01/10 10:35:57;;;;;;;12.60;5.30;;;-0.20;99.90;;;0.48;100.00;98545.88;4947350;28;20490;-75
2022/01/10 10:38:28;;;;;;;5.90;3.90;;;-0.20;99.90;;;0.46;100.00;98552.88;4950989;28;20497;-75
2022/01/10 10:41:04;;;;;;;6.43;4.43;;;-0.20;99.90;;;0.49;100.00;98556.97;4952366;28;21020;-78
2022/01/10 10:43:33;;;;;;;10.13;6.57;;;-0.20;99.90;;;0.52;100.00;98557.56;4949077;28;20466;-75
2022/01/10 10:46:08;;;;;;;7.93;4.50;;;-0.20;99.90;;;0.56;100.00;98558.16;4950548;28;20470;-75